METAR AND TAF INFORMATION
METAR FOR LKPD
ADDS - METARS form results

(0342 UTC 26 February 2020)
Data provider http://aviationweather.gov/metar/data/
 
METAR text: LKPD 260330Z 21005KT CAVOK 04/02 Q0994 RMK BLU
Conditions at: LKPD (PARDUBICE , CZ) observed 0330 UTC 26 February 2020
Temperature: 4.0°C (39°F)
Dewpoint: 2.0°C (36°F) [RH = 87%]
Pressure (altimeter): 29.35 inches Hg (994.0 mb)
Winds: from the SSW (210 degrees) at 6 MPH (5 knots; 2.6 m/s)
Visibility: 6 or more miles (10+ km)
Ceiling: ceiling and visibility are OK
Clouds: unknown
Weather: no significant weather observed at this time

METAR text: LKPD 260300Z 23005KT CAVOK 04/02 Q0995 RMK BLU
Conditions at: LKPD (PARDUBICE , CZ) observed 0300 UTC 26 February 2020
Temperature: 4.0°C (39°F)
Dewpoint: 2.0°C (36°F) [RH = 87%]
Pressure (altimeter): 29.38 inches Hg (995.0 mb)
Winds: from the SW (230 degrees) at 6 MPH (5 knots; 2.6 m/s)
Visibility: 6 or more miles (10+ km)
Ceiling: ceiling and visibility are OK
Clouds: unknown
Weather: no significant weather observed at this time

Forecast for: LKPD (PARDUBICE , CZ)
Text: TAF LKPD 252300Z 2600/2700 25010KT CAVOK
Forecast period: 0000 to 0600 UTC 26 February 2020
Forecast type: FROM: standard forecast or significant change
Winds: from the WSW (250 degrees) at 12 MPH (10 knots; 5.1 m/s)
Visibility: 6 or more miles 10+ km)
Ceiling: unknown
Clouds: missing
Weather: NSW  (no significant weather)
Text: BECMG 2606/2608 BKN040
Forecast period: 0600 UTC 26 February 2020 to 0000 UTC 27 February 2020
Forecast type: BECOMING: Conditions expected to become as follows by 0800 UTC 26 February 2020
Winds: from the WSW (250 degrees) at 12 MPH (10 knots; 5.1 m/s)
Visibility: 6 or more miles 10+ km)
Ceiling: 4000 feet AGL
Clouds: broken clouds at 4000 feet AGL
Weather: NSW  (no significant weather)
Text: PROB40
Forecast period: 1000 to 1800 UTC 26 February 2020
Forecast type: TEMPORARY: The following changes expected for less than half the time period
Winds: from the W (260 degrees) at 14 MPH (12 knots; 6.2 m/s)
gusting to 25 MPH (22 knots; 11.3 m/s)
Visibility: 5 miles (8 km)
Ceiling: 3000 feet AGL
Clouds: broken clouds at 3000 feet AGL
Weather: SHRA  (rain showers)

 AIRPORT MAP

 RUNWAY INFORMATION
Runway 09 Runway length 8203 ft Runway width 246 ft
Runway elevation 735 ft Runway displaced threshold 0 ft Runway heading 93
Runway 27 Runway length 8203 ft Runway width 246 ft
Runway elevation 732 ft Runway displaced threshold 0 ft Runway heading 273

 AIRPORT FREQUENCIES
Type APP Name APP Frequency 127.65 MHZ
Type GCA Name PRECISION Frequency 123.3 MHZ
Type OPS Name OPS Frequency 138 MHZ
Type TWR Name TWR Frequency 121.25 MHZ

 AIRPORT NEAR NAVIGATION AIDS
Type NDB Name Pardubice Frequency 432 KHZ



Powered by Virtual Airlines Manager [v2.6.2]